createdAt,value
2018-05-06T00:00:41.329Z,14.12
2018-05-06T00:01:41.310Z,14.15
2018-05-06T00:02:41.312Z,14.02
2018-05-06T00:03:41.278Z,14.09
2018-05-06T00:04:41.262Z,14.02
2018-05-06T00:05:41.251Z,14.06
2018-05-06T00:06:41.232Z,13.96
2018-05-06T00:07:41.218Z,13.99
2018-05-06T00:08:41.199Z,13.91
2018-05-06T00:09:41.180Z,13.81
2018-05-06T00:10:41.162Z,13.87
2018-05-06T00:11:41.150Z,13.85
2018-05-06T00:12:41.132Z,13.89
2018-05-06T00:13:41.118Z,13.84
2018-05-06T00:14:41.099Z,13.88
2018-05-06T00:15:41.100Z,13.87
2018-05-06T00:16:41.076Z,13.88
2018-05-06T00:17:41.053Z,13.89
2018-05-06T00:18:41.036Z,13.84
2018-05-06T00:19:41.022Z,13.84
2018-05-06T00:20:41.009Z,13.88
2018-05-06T00:21:40.989Z,13.81
2018-05-06T00:22:40.973Z,13.84
2018-05-06T00:23:40.962Z,13.78
2018-05-06T00:24:40.942Z,13.81
2018-05-06T00:25:40.926Z,13.82
2018-05-06T00:26:40.914Z,13.85
2018-05-06T00:27:40.897Z,13.87
2018-05-06T00:28:40.877Z,13.81
2018-05-06T00:29:40.868Z,13.85
2018-05-06T00:30:40.854Z,13.84
2018-05-06T00:31:40.830Z,13.85
2018-05-06T00:32:40.818Z,13.78
2018-05-06T00:33:40.906Z,13.85
2018-05-06T00:34:40.785Z,13.79
2018-05-06T00:35:40.774Z,13.85
2018-05-06T00:36:40.756Z,13.73
2018-05-06T00:37:40.736Z,13.75
2018-05-06T00:38:40.722Z,13.69
2018-05-06T00:39:40.705Z,13.62
2018-05-06T00:40:40.688Z,13.54
2018-05-06T00:41:40.673Z,13.54
2018-05-06T00:42:40.659Z,13.62
2018-05-06T00:43:40.638Z,13.52
2018-05-06T00:44:40.631Z,13.52
2018-05-06T00:45:40.609Z,13.46
2018-05-06T00:46:40.590Z,13.44
2018-05-06T00:47:40.578Z,13.51
2018-05-06T00:48:40.562Z,13.51
2018-05-06T00:49:40.547Z,13.46
2018-05-06T00:50:40.528Z,13.45
2018-05-06T00:51:40.520Z,13.49
2018-05-06T00:52:40.498Z,13.46
2018-05-06T00:53:40.486Z,13.39
2018-05-06T00:54:40.467Z,13.49
2018-05-06T00:55:40.448Z,13.48
2018-05-06T00:56:40.441Z,13.46
2018-05-06T00:57:40.422Z,13.49
2018-05-06T00:58:40.405Z,13.46
2018-05-06T00:59:40.390Z,13.41
2018-05-06T01:00:40.374Z,13.42
2018-05-06T01:01:40.362Z,13.45
2018-05-06T01:02:40.336Z,13.38
2018-05-06T01:03:40.323Z,13.32
2018-05-06T01:04:40.303Z,13.30
2018-05-06T01:05:40.296Z,13.33
2018-05-06T01:06:40.272Z,13.33
2018-05-06T01:07:40.258Z,13.41
2018-05-06T01:08:40.242Z,13.32
2018-05-06T01:09:40.226Z,13.33
2018-05-06T01:10:40.210Z,13.30
2018-05-06T01:11:40.192Z,13.23
2018-05-06T01:12:40.175Z,13.29
2018-05-06T01:13:40.161Z,13.26
2018-05-06T01:14:40.146Z,13.22
2018-05-06T01:15:40.130Z,13.23
2018-05-06T01:16:40.121Z,13.14
2018-05-06T01:17:40.108Z,13.05
2018-05-06T01:18:40.079Z,13.08
2018-05-06T01:19:40.067Z,13.07
2018-05-06T01:20:40.051Z,13.00
2018-05-06T01:21:40.034Z,13.01
2018-05-06T01:22:40.018Z,12.93
2018-05-06T01:23:39.999Z,13.01
2018-05-06T01:24:39.988Z,12.93
2018-05-06T01:25:39.969Z,13.01
2018-05-06T01:26:39.957Z,12.93
2018-05-06T01:27:39.939Z,12.95
2018-05-06T01:28:39.917Z,12.96
2018-05-06T01:29:39.909Z,12.93
2018-05-06T01:30:39.889Z,13.05
2018-05-06T01:31:39.870Z,13.04
2018-05-06T01:32:39.854Z,13.03
2018-05-06T01:33:39.838Z,13.05
2018-05-06T01:34:39.826Z,13.01
2018-05-06T01:35:39.806Z,12.93
2018-05-06T01:36:39.788Z,12.97
2018-05-06T01:37:39.776Z,12.85
2018-05-06T01:38:39.758Z,12.78
2018-05-06T01:39:39.744Z,12.85
2018-05-06T01:40:39.724Z,12.87
2018-05-06T01:41:40.038Z,12.92
2018-05-06T01:42:39.695Z,12.77
2018-05-06T01:43:39.679Z,12.87
2018-05-06T01:44:39.671Z,12.86
2018-05-06T01:45:39.644Z,12.77
2018-05-06T01:46:39.626Z,12.83
2018-05-06T01:47:39.617Z,12.85
2018-05-06T01:48:39.594Z,12.79
2018-05-06T01:49:39.578Z,12.82
2018-05-06T01:50:39.564Z,12.87
2018-05-06T01:51:39.546Z,12.79
2018-05-06T01:52:39.531Z,12.79
2018-05-06T01:53:39.516Z,12.78
2018-05-06T01:54:39.500Z,12.74
2018-05-06T01:55:39.480Z,12.82
2018-05-06T01:56:39.467Z,12.70
2018-05-06T01:57:39.450Z,12.75
2018-05-06T01:58:39.433Z,12.68
2018-05-06T01:59:39.417Z,12.70
2018-05-06T02:00:39.444Z,12.64
2018-05-06T02:01:39.386Z,12.68
2018-05-06T02:02:39.366Z,12.72
2018-05-06T02:03:39.350Z,12.68
2018-05-06T02:04:39.333Z,12.64
2018-05-06T02:05:39.318Z,12.65
2018-05-06T02:06:39.303Z,12.50
2018-05-06T02:07:39.291Z,12.57
2018-05-06T02:08:39.269Z,12.52
2018-05-06T02:09:39.255Z,12.49
2018-05-06T02:10:39.243Z,12.62
2018-05-06T02:11:39.220Z,12.53
2018-05-06T02:12:39.205Z,12.52
2018-05-06T02:13:39.189Z,12.49
2018-05-06T02:14:39.176Z,12.39
2018-05-06T02:15:39.163Z,12.50
2018-05-06T02:16:39.136Z,12.38
2018-05-06T02:17:39.120Z,12.39
2018-05-06T02:18:39.105Z,12.38
2018-05-06T02:19:39.089Z,12.29
2018-05-06T02:20:39.075Z,12.34
2018-05-06T02:21:39.063Z,12.37
2018-05-06T02:22:39.039Z,12.37
2018-05-06T02:23:39.026Z,12.34
2018-05-06T02:24:39.016Z,12.19
2018-05-06T02:25:38.988Z,12.20
2018-05-06T02:26:38.978Z,12.21
2018-05-06T02:27:38.964Z,12.23
2018-05-06T02:28:38.938Z,12.21
2018-05-06T02:29:38.932Z,12.24
2018-05-06T02:30:38.909Z,12.17
2018-05-06T02:31:38.893Z,12.16
2018-05-06T02:32:38.880Z,12.19
2018-05-06T02:33:38.859Z,12.17
2018-05-06T02:34:38.846Z,12.23
2018-05-06T02:35:38.825Z,12.20
2018-05-06T02:36:38.809Z,12.13
2018-05-06T02:37:38.799Z,12.17
2018-05-06T02:38:38.780Z,12.12
2018-05-06T02:39:38.775Z,12.16
2018-05-06T02:40:38.745Z,12.19
2018-05-06T02:41:38.728Z,12.21
2018-05-06T02:42:38.710Z,12.12
2018-05-06T02:43:38.699Z,12.16
2018-05-06T02:44:38.676Z,12.10
2018-05-06T02:45:38.661Z,12.09
2018-05-06T02:46:38.640Z,12.04
2018-05-06T02:47:38.629Z,11.99
2018-05-06T02:48:38.617Z,11.96
2018-05-06T02:49:38.592Z,11.86
2018-05-06T02:50:38.576Z,12.01
2018-05-06T02:51:38.561Z,11.86
2018-05-06T02:52:38.545Z,11.98
2018-05-06T02:53:38.530Z,11.86
2018-05-06T02:54:38.514Z,12.01
2018-05-06T02:55:38.494Z,12.01
2018-05-06T02:56:38.481Z,11.95
2018-05-06T02:57:38.457Z,11.98
2018-05-06T02:58:38.446Z,11.95
2018-05-06T02:59:38.427Z,11.88
2018-05-06T03:00:38.413Z,11.91
2018-05-06T03:01:38.396Z,11.83
2018-05-06T03:02:38.379Z,11.79
2018-05-06T03:03:38.363Z,11.82
2018-05-06T03:04:38.352Z,11.86
2018-05-06T03:05:38.329Z,11.83
2018-05-06T03:06:38.316Z,11.82
2018-05-06T03:07:38.292Z,11.82
2018-05-06T03:08:38.276Z,11.79
2018-05-06T03:09:38.259Z,11.86
2018-05-06T03:10:38.245Z,11.79
2018-05-06T03:11:38.229Z,11.83
2018-05-06T03:12:38.209Z,11.82
2018-05-06T03:13:38.193Z,11.76
2018-05-06T03:14:38.179Z,11.73
2018-05-06T03:15:38.166Z,11.78
2018-05-06T03:16:38.147Z,11.79
2018-05-06T03:17:38.127Z,11.91
2018-05-06T03:18:38.109Z,11.98
2018-05-06T03:19:38.094Z,11.94
2018-05-06T03:20:38.082Z,11.83
2018-05-06T03:21:38.059Z,11.96
2018-05-06T03:22:38.046Z,11.79
2018-05-06T03:23:38.029Z,11.90
2018-05-06T03:24:38.019Z,11.95
2018-05-06T03:25:37.994Z,11.80
2018-05-06T03:26:37.977Z,11.82
2018-05-06T03:27:37.960Z,11.76
2018-05-06T03:28:37.946Z,11.80
2018-05-06T03:29:37.923Z,11.79
2018-05-06T03:30:37.919Z,11.80
2018-05-06T03:31:37.899Z,11.72
2018-05-06T03:32:37.875Z,11.69
2018-05-06T03:33:37.859Z,11.58
2018-05-06T03:34:37.843Z,11.55
2018-05-06T03:35:37.826Z,11.54
2018-05-06T03:36:37.813Z,11.60
2018-05-06T03:37:37.797Z,11.58
2018-05-06T03:38:37.778Z,11.46
2018-05-06T03:39:37.768Z,11.44
2018-05-06T03:40:37.741Z,11.51
2018-05-06T03:41:37.725Z,11.46
2018-05-06T03:42:37.710Z,11.52
2018-05-06T03:43:37.692Z,11.49
2018-05-06T03:44:37.678Z,11.44
2018-05-06T03:45:37.660Z,11.47
2018-05-06T03:46:37.640Z,11.47
2018-05-06T03:47:37.626Z,11.43
2018-05-06T03:48:37.607Z,11.39
2018-05-06T03:49:37.589Z,11.46
2018-05-06T03:50:37.576Z,11.35
2018-05-06T03:51:37.565Z,11.39
2018-05-06T03:52:37.542Z,11.47
2018-05-06T03:53:37.529Z,11.47
2018-05-06T03:54:37.508Z,11.39
2018-05-06T03:55:37.489Z,11.46
2018-05-06T03:56:37.473Z,11.44
2018-05-06T03:57:37.453Z,11.42
2018-05-06T03:58:37.439Z,11.49
2018-05-06T03:59:37.420Z,11.47
2018-05-06T04:00:37.412Z,11.47
2018-05-06T04:01:37.387Z,11.51
2018-05-06T04:02:37.370Z,11.46
2018-05-06T04:03:37.354Z,11.49
2018-05-06T04:04:37.336Z,11.57
2018-05-06T04:05:37.318Z,11.54
2018-05-06T04:06:37.310Z,11.47
2018-05-06T04:07:37.289Z,11.47
2018-05-06T04:08:37.271Z,11.49
2018-05-06T04:09:37.249Z,11.40
2018-05-06T04:10:37.239Z,11.51
2018-05-06T04:11:37.221Z,11.54
2018-05-06T04:12:37.204Z,11.58
2018-05-06T04:13:37.187Z,11.49
2018-05-06T04:14:37.169Z,11.51
2018-05-06T04:15:37.148Z,11.46
2018-05-06T04:16:37.132Z,11.58
2018-05-06T04:17:37.118Z,11.55
2018-05-06T04:18:37.103Z,11.55
2018-05-06T04:19:37.089Z,11.57
2018-05-06T04:20:37.069Z,11.58
2018-05-06T04:21:37.049Z,11.57
2018-05-06T04:22:37.031Z,11.51
2018-05-06T04:23:37.015Z,11.54
2018-05-06T04:24:36.999Z,11.61
2018-05-06T04:25:36.982Z,11.57
2018-05-06T04:26:36.967Z,11.57
2018-05-06T04:27:36.945Z,11.72
2018-05-06T04:28:36.928Z,11.70
2018-05-06T04:29:36.913Z,11.60
2018-05-06T04:30:36.899Z,11.60
2018-05-06T04:31:36.882Z,11.61
2018-05-06T04:32:36.860Z,11.62
2018-05-06T04:33:36.844Z,11.61
2018-05-06T04:34:36.828Z,11.61
2018-05-06T04:35:36.809Z,11.70
2018-05-06T04:36:36.798Z,11.73
2018-05-06T04:37:36.777Z,11.73
2018-05-06T04:38:36.759Z,11.78
2018-05-06T04:39:36.748Z,11.79
2018-05-06T04:40:36.725Z,11.76
2018-05-06T04:41:36.709Z,11.79
2018-05-06T04:42:36.691Z,11.78
2018-05-06T04:43:36.683Z,11.79
2018-05-06T04:44:36.668Z,11.80
2018-05-06T04:45:36.645Z,11.90
2018-05-06T04:46:36.628Z,11.94
2018-05-06T04:47:36.611Z,11.83
2018-05-06T04:48:36.589Z,11.96
2018-05-06T04:49:36.582Z,11.99
2018-05-06T04:50:36.555Z,11.90
2018-05-06T04:51:36.539Z,11.90
2018-05-06T04:52:36.531Z,11.96
2018-05-06T04:53:36.509Z,11.85
2018-05-06T04:54:36.490Z,11.85
2018-05-06T04:55:36.471Z,11.90
2018-05-06T04:56:36.459Z,11.86
2018-05-06T04:57:36.436Z,11.95
2018-05-06T04:58:36.427Z,11.98
2018-05-06T04:59:36.406Z,12.09
2018-05-06T05:00:36.389Z,11.98
2018-05-06T05:01:36.370Z,12.02
2018-05-06T05:02:36.352Z,11.99
2018-05-06T05:03:36.334Z,12.09
2018-05-06T05:04:36.335Z,11.99
2018-05-06T05:05:36.307Z,12.10
2018-05-06T05:06:36.305Z,12.05
2018-05-06T05:07:36.270Z,12.12
2018-05-06T05:08:36.249Z,12.13
2018-05-06T05:09:36.318Z,12.10
2018-05-06T05:10:36.224Z,12.13
2018-05-06T05:11:36.203Z,12.17
2018-05-06T05:12:36.186Z,12.13
2018-05-06T05:13:36.169Z,12.13
2018-05-06T05:14:36.148Z,12.13
2018-05-06T05:15:36.143Z,12.16
2018-05-06T05:16:36.120Z,12.19
2018-05-06T05:17:36.099Z,12.12
2018-05-06T05:18:36.084Z,12.27
2018-05-06T05:19:36.072Z,12.20
2018-05-06T05:20:36.048Z,12.17
2018-05-06T05:21:36.108Z,12.23
2018-05-06T05:22:36.012Z,12.23
2018-05-06T05:23:35.997Z,12.34
2018-05-06T05:24:35.979Z,12.41
2018-05-06T05:25:35.962Z,12.41
2018-05-06T05:26:35.954Z,12.54
2018-05-06T05:27:35.936Z,12.42
2018-05-06T05:28:35.917Z,12.49
2018-05-06T05:29:35.895Z,12.50
2018-05-06T05:30:35.883Z,12.50
2018-05-06T05:31:35.864Z,12.62
2018-05-06T05:32:35.851Z,12.64
2018-05-06T05:33:35.829Z,12.62
2018-05-06T05:34:35.817Z,12.57
2018-05-06T05:35:35.800Z,12.70
2018-05-06T05:36:35.776Z,12.68
2018-05-06T05:37:35.765Z,12.70
2018-05-06T05:38:35.747Z,12.65
2018-05-06T05:39:35.744Z,12.71
2018-05-06T05:40:35.714Z,12.71
2018-05-06T05:41:35.702Z,12.78
2018-05-06T05:42:35.679Z,12.83
2018-05-06T05:43:35.662Z,12.89
2018-05-06T05:44:35.642Z,12.86
2018-05-06T05:45:35.627Z,12.86
2018-05-06T05:46:35.610Z,12.93
2018-05-06T05:47:35.621Z,12.89
2018-05-06T05:48:35.577Z,13.03
2018-05-06T05:49:35.560Z,12.93
2018-05-06T05:50:35.548Z,12.93
2018-05-06T05:51:35.534Z,13.04
2018-05-06T05:52:35.515Z,13.05
2018-05-06T05:53:35.495Z,13.15
2018-05-06T05:54:35.477Z,13.12
2018-05-06T05:55:35.463Z,13.12
2018-05-06T05:56:35.445Z,13.25
2018-05-06T05:57:35.425Z,13.22
2018-05-06T05:58:35.412Z,13.28
2018-05-06T05:59:35.399Z,13.25
2018-05-06T06:00:35.381Z,13.29
2018-05-06T06:01:35.401Z,13.32
2018-05-06T06:02:35.345Z,13.38
2018-05-06T06:03:35.329Z,13.39
2018-05-06T06:04:35.309Z,13.39
2018-05-06T06:05:35.299Z,13.39
2018-05-06T06:06:35.274Z,13.45
2018-05-06T06:07:35.256Z,13.44
2018-05-06T06:08:35.240Z,13.54
2018-05-06T06:09:35.229Z,13.60
2018-05-06T06:10:35.210Z,13.60
2018-05-06T06:11:35.192Z,13.63
2018-05-06T06:12:35.183Z,13.66
2018-05-06T06:13:35.159Z,13.64
2018-05-06T06:14:35.147Z,13.75
2018-05-06T06:15:35.188Z,13.71
2018-05-06T06:16:35.110Z,13.84
2018-05-06T06:17:35.115Z,13.89
2018-05-06T06:18:35.075Z,13.78
2018-05-06T06:19:35.059Z,13.85
2018-05-06T06:20:35.041Z,13.84
2018-05-06T06:21:35.031Z,13.92
2018-05-06T06:22:35.008Z,14.04
2018-05-06T06:23:34.997Z,14.04
2018-05-06T06:24:35.052Z,14.03
2018-05-06T06:25:34.957Z,14.02
2018-05-06T06:26:34.941Z,14.12
2018-05-06T06:27:34.929Z,14.18
2018-05-06T06:28:34.909Z,14.21
2018-05-06T06:29:34.899Z,14.25
2018-05-06T06:30:34.877Z,14.25
2018-05-06T06:31:34.862Z,14.40
2018-05-06T06:32:34.846Z,14.42
2018-05-06T06:33:34.830Z,14.50
2018-05-06T06:34:34.810Z,14.51
2018-05-06T06:35:34.793Z,14.52
2018-05-06T06:36:34.775Z,14.54
2018-05-06T06:37:34.763Z,14.51
2018-05-06T06:38:34.744Z,14.50
2018-05-06T06:39:34.729Z,14.57
2018-05-06T06:40:34.709Z,14.58
2018-05-06T06:41:34.699Z,14.58
2018-05-06T06:42:34.679Z,14.61
2018-05-06T06:43:34.664Z,14.64
2018-05-06T06:44:34.648Z,14.69
2018-05-06T06:45:34.628Z,14.80
2018-05-06T06:46:34.610Z,14.89
2018-05-06T06:47:34.600Z,14.88
2018-05-06T06:48:34.578Z,14.95
2018-05-06T06:49:34.565Z,15.07
2018-05-06T06:50:34.551Z,15.07
2018-05-06T06:51:34.530Z,15.09
2018-05-06T06:52:34.515Z,15.07
2018-05-06T06:53:34.503Z,15.13
2018-05-06T06:54:34.480Z,15.02
2018-05-06T06:55:34.467Z,15.11
2018-05-06T06:56:34.449Z,15.19
2018-05-06T06:57:34.428Z,15.14
2018-05-06T06:58:34.423Z,15.21
2018-05-06T06:59:34.399Z,15.25
2018-05-06T07:00:34.392Z,15.41
2018-05-06T07:01:34.369Z,15.47
2018-05-06T07:02:34.351Z,15.41
2018-05-06T07:03:34.330Z,15.47
2018-05-06T07:04:34.315Z,15.59
2018-05-06T07:05:34.305Z,15.62
2018-05-06T07:06:34.288Z,15.67
2018-05-06T07:07:34.272Z,15.69
2018-05-06T07:08:34.249Z,15.80
2018-05-06T07:09:34.239Z,15.94
2018-05-06T07:10:34.215Z,16.07
2018-05-06T07:11:34.201Z,16.11
2018-05-06T07:12:34.183Z,16.12
2018-05-06T07:13:34.169Z,16.21
2018-05-06T07:14:34.152Z,16.21
2018-05-06T07:15:34.139Z,16.28
2018-05-06T07:16:34.132Z,16.30
2018-05-06T07:17:34.102Z,16.27
2018-05-06T07:18:34.089Z,16.38
2018-05-06T07:19:34.079Z,16.24
2018-05-06T07:20:34.057Z,16.33
2018-05-06T07:21:34.044Z,16.41
2018-05-06T07:22:34.026Z,16.43
2018-05-06T07:23:34.010Z,16.42
2018-05-06T07:24:34.000Z,16.46
2018-05-06T07:25:33.978Z,16.58
2018-05-06T07:26:33.970Z,16.56
2018-05-06T07:27:33.951Z,16.61
2018-05-06T07:28:33.927Z,16.63
2018-05-06T07:29:33.917Z,16.78
2018-05-06T07:30:33.903Z,16.88
2018-05-06T07:31:33.879Z,16.94
2018-05-06T07:32:33.865Z,17.00
2018-05-06T07:33:33.851Z,17.00
2018-05-06T07:34:33.838Z,17.08
2018-05-06T07:35:33.819Z,16.96
2018-05-06T07:36:33.808Z,17.00
2018-05-06T07:37:33.792Z,17.01
2018-05-06T07:38:33.774Z,17.06
2018-05-06T07:39:33.758Z,17.04
2018-05-06T07:40:33.739Z,17.07
2018-05-06T07:41:33.739Z,17.12
2018-05-06T07:42:33.713Z,17.18
2018-05-06T07:43:33.694Z,17.14
2018-05-06T07:44:33.677Z,17.16
2018-05-06T07:45:33.660Z,17.25
2018-05-06T07:46:33.651Z,17.33
2018-05-06T07:47:33.628Z,17.38
2018-05-06T07:48:33.618Z,17.41
2018-05-06T07:49:33.602Z,17.62
2018-05-06T07:50:33.585Z,17.68
2018-05-06T07:51:33.568Z,17.77
2018-05-06T07:52:33.561Z,17.78
2018-05-06T07:53:33.541Z,17.81
2018-05-06T07:54:33.526Z,17.92
2018-05-06T07:55:33.517Z,17.90
2018-05-06T07:56:33.495Z,17.86
2018-05-06T07:57:33.477Z,17.78
2018-05-06T07:58:33.459Z,17.81
2018-05-06T07:59:33.450Z,17.82
2018-05-06T08:00:33.430Z,17.79
2018-05-06T08:01:33.418Z,17.96
2018-05-06T08:02:33.400Z,18.02
2018-05-06T08:03:33.388Z,17.96
2018-05-06T08:04:33.380Z,17.92
2018-05-06T08:05:33.356Z,17.96
2018-05-06T08:06:33.340Z,17.99
2018-05-06T08:07:33.324Z,18.08
2018-05-06T08:08:33.316Z,18.12
2018-05-06T08:09:33.295Z,18.08
2018-05-06T08:10:33.282Z,18.17
2018-05-06T08:11:33.273Z,18.23
2018-05-06T08:12:33.257Z,18.33
2018-05-06T08:13:33.241Z,18.44
2018-05-06T08:14:33.221Z,18.54
2018-05-06T08:15:33.210Z,18.58
2018-05-06T08:16:33.285Z,18.62
2018-05-06T08:17:33.175Z,18.72
2018-05-06T08:18:33.160Z,18.70
2018-05-06T08:19:33.148Z,18.60
2018-05-06T08:20:33.138Z,18.60
2018-05-06T08:21:33.122Z,18.57
2018-05-06T08:22:33.113Z,18.66
2018-05-06T08:23:33.090Z,18.57
2018-05-06T08:24:33.077Z,18.44
2018-05-06T08:25:33.067Z,18.44
2018-05-06T08:26:33.052Z,18.57
2018-05-06T08:27:33.048Z,18.50
2018-05-06T08:28:33.016Z,18.63
2018-05-06T08:29:33.007Z,18.78
2018-05-06T08:30:32.997Z,18.91
2018-05-06T08:31:32.972Z,18.95
2018-05-06T08:32:32.959Z,19.11
2018-05-06T08:33:32.941Z,19.10
2018-05-06T08:34:32.936Z,19.04
2018-05-06T08:35:32.916Z,19.02
2018-05-06T08:36:32.900Z,19.13
2018-05-06T08:37:32.910Z,19.25
2018-05-06T08:38:32.871Z,19.31
2018-05-06T08:39:32.857Z,19.39
2018-05-06T08:40:32.845Z,19.56
2018-05-06T08:41:32.831Z,19.48
2018-05-06T08:42:32.813Z,19.50
2018-05-06T08:43:32.800Z,19.43
2018-05-06T08:44:32.790Z,19.58
2018-05-06T08:45:32.770Z,19.63
2018-05-06T08:46:32.753Z,19.62
2018-05-06T08:47:32.748Z,19.56
2018-05-06T08:48:32.729Z,19.63
2018-05-06T08:49:32.724Z,19.81
2018-05-06T08:50:32.710Z,19.68
2018-05-06T08:51:32.754Z,19.68
2018-05-06T08:52:32.675Z,19.66
2018-05-06T08:53:32.657Z,19.56
2018-05-06T08:54:32.644Z,19.66
2018-05-06T08:55:32.648Z,19.69
2018-05-06T08:56:32.613Z,19.81
2018-05-06T08:57:32.602Z,19.88
2018-05-06T08:58:32.586Z,19.92
2018-05-06T08:59:32.656Z,19.94
2018-05-06T09:00:32.564Z,20.02
2018-05-06T09:01:32.554Z,19.96
2018-05-06T09:02:32.531Z,19.95
2018-05-06T09:03:32.517Z,19.94
2018-05-06T09:04:32.507Z,20.08
2018-05-06T09:05:32.492Z,20.10
2018-05-06T09:06:32.475Z,20.05
2018-05-06T09:07:32.470Z,20.02
2018-05-06T09:08:32.468Z,20.17
2018-05-06T09:09:32.444Z,20.28
2018-05-06T09:10:32.421Z,20.31
2018-05-06T09:11:32.408Z,20.31
2018-05-06T09:12:32.398Z,20.42
2018-05-06T09:13:32.388Z,20.62
2018-05-06T09:14:32.366Z,20.64
2018-05-06T09:15:32.352Z,20.72
2018-05-06T09:16:32.339Z,20.66
2018-05-06T09:17:32.328Z,20.82
2018-05-06T09:18:32.316Z,20.69
2018-05-06T09:19:32.301Z,20.76
2018-05-06T09:20:32.289Z,20.82
2018-05-06T09:21:32.272Z,20.91
2018-05-06T09:22:32.260Z,20.87
2018-05-06T09:23:32.251Z,20.84
2018-05-06T09:24:32.244Z,20.67
2018-05-06T09:25:32.230Z,20.69
2018-05-06T09:26:32.210Z,20.76
2018-05-06T09:27:32.192Z,20.82
2018-05-06T09:28:32.178Z,20.76
2018-05-06T09:29:32.170Z,20.76
2018-05-06T09:30:32.153Z,20.79
2018-05-06T09:31:32.142Z,20.85
2018-05-06T09:32:32.137Z,20.94
2018-05-06T09:33:32.112Z,20.98
2018-05-06T09:34:32.117Z,21.04
2018-05-06T09:35:32.093Z,21.10
2018-05-06T09:36:32.077Z,21.21
2018-05-06T09:37:32.067Z,21.24
2018-05-06T09:38:32.048Z,21.29
2018-05-06T09:39:32.040Z,21.25
2018-05-06T09:40:32.029Z,21.31
2018-05-06T09:41:32.013Z,21.35
2018-05-06T09:42:31.997Z,21.28
2018-05-06T09:43:31.990Z,21.35
2018-05-06T09:44:31.974Z,21.10
2018-05-06T09:45:31.972Z,21.14
2018-05-06T09:46:31.948Z,21.22
2018-05-06T09:47:31.944Z,21.10
2018-05-06T09:48:31.918Z,21.32
2018-05-06T09:49:31.909Z,21.32
2018-05-06T09:50:31.897Z,21.42
2018-05-06T09:51:31.879Z,21.40
2018-05-06T09:52:31.869Z,21.56
2018-05-06T09:53:31.860Z,21.62
2018-05-06T09:54:31.846Z,21.74
2018-05-06T09:55:31.831Z,21.74
2018-05-06T09:56:31.821Z,21.91
2018-05-06T09:57:31.804Z,21.88
2018-05-06T09:58:31.788Z,21.96
2018-05-06T09:59:31.777Z,21.90
2018-05-06T10:00:31.781Z,21.86
2018-05-06T10:01:31.753Z,22.00
2018-05-06T10:02:31.738Z,22.07
2018-05-06T10:03:31.732Z,22.02
2018-05-06T10:04:31.722Z,22.02
2018-05-06T10:05:31.703Z,21.99
2018-05-06T10:06:31.704Z,21.92
2018-05-06T10:07:31.674Z,22.03
2018-05-06T10:08:31.671Z,21.99
2018-05-06T10:09:31.655Z,21.84
2018-05-06T10:10:31.643Z,22.00
2018-05-06T10:11:31.623Z,21.88
2018-05-06T10:12:31.619Z,21.91
2018-05-06T10:13:31.613Z,21.91
2018-05-06T10:14:31.588Z,21.88
2018-05-06T10:15:31.585Z,21.91
2018-05-06T10:16:31.573Z,21.99
2018-05-06T10:17:31.550Z,22.03
2018-05-06T10:18:31.543Z,22.09
2018-05-06T10:19:31.529Z,22.10
2018-05-06T10:20:31.526Z,21.99
2018-05-06T10:21:31.500Z,22.12
2018-05-06T10:22:31.492Z,22.14
2018-05-06T10:23:31.479Z,22.20
2018-05-06T10:24:31.462Z,22.27
2018-05-06T10:25:31.457Z,22.28
2018-05-06T10:26:31.457Z,22.40
2018-05-06T10:27:31.440Z,22.22
2018-05-06T10:28:31.417Z,22.21
2018-05-06T10:29:31.403Z,22.25
2018-05-06T10:30:31.419Z,22.24
2018-05-06T10:31:31.376Z,22.37
2018-05-06T10:32:31.368Z,22.47
2018-05-06T10:33:31.353Z,22.58
2018-05-06T10:34:31.341Z,22.60
2018-05-06T10:35:31.332Z,22.60
2018-05-06T10:36:31.344Z,22.58
2018-05-06T10:37:31.323Z,22.58
2018-05-06T10:38:31.301Z,22.57
2018-05-06T10:39:31.281Z,22.64
2018-05-06T10:40:31.276Z,22.62
2018-05-06T10:41:31.260Z,22.72
2018-05-06T10:42:31.242Z,22.75
2018-05-06T10:43:31.233Z,22.90
2018-05-06T10:44:31.227Z,22.88
2018-05-06T10:45:31.212Z,22.98
2018-05-06T10:46:31.196Z,22.86
2018-05-06T10:47:31.191Z,23.01
2018-05-06T10:48:31.177Z,22.98
2018-05-06T10:49:31.163Z,22.88
2018-05-06T10:50:31.343Z,22.79
2018-05-06T10:51:31.160Z,22.73
2018-05-06T10:52:31.124Z,22.75
2018-05-06T10:53:31.113Z,22.80
2018-05-06T10:54:31.102Z,22.86
2018-05-06T10:55:31.089Z,22.88
2018-05-06T10:56:31.090Z,22.83
2018-05-06T10:57:31.068Z,22.88
2018-05-06T10:58:31.060Z,22.94
2018-05-06T10:59:31.044Z,23.02
2018-05-06T11:00:31.035Z,23.13
2018-05-06T11:01:31.028Z,23.07
2018-05-06T11:02:31.012Z,23.10
2018-05-06T11:03:30.997Z,23.13
2018-05-06T11:04:31.001Z,23.05
2018-05-06T11:05:30.992Z,23.09
2018-05-06T11:06:30.971Z,22.94
2018-05-06T11:07:30.952Z,22.83
2018-05-06T11:08:30.963Z,22.86
2018-05-06T11:09:30.926Z,22.85
2018-05-06T11:10:31.034Z,22.83
2018-05-06T11:11:30.901Z,22.90
2018-05-06T11:12:30.892Z,22.94
2018-05-06T11:13:30.883Z,23.00
2018-05-06T11:14:30.870Z,23.01
2018-05-06T11:15:30.863Z,23.19
2018-05-06T11:16:30.850Z,22.98
2018-05-06T11:17:30.843Z,23.09
2018-05-06T11:18:30.829Z,23.12
2018-05-06T11:19:30.811Z,23.12
2018-05-06T11:20:30.797Z,23.13
2018-05-06T11:21:30.797Z,23.02
2018-05-06T11:22:30.785Z,23.15
2018-05-06T11:23:30.764Z,23.16
2018-05-06T11:24:30.758Z,23.15
2018-05-06T11:25:30.742Z,23.05
2018-05-06T11:26:30.729Z,23.04
2018-05-06T11:27:30.729Z,23.04
2018-05-06T11:28:30.706Z,22.98
2018-05-06T11:29:30.691Z,23.12
2018-05-06T11:30:30.685Z,23.15
2018-05-06T11:31:30.672Z,23.17
2018-05-06T11:32:30.656Z,23.25
2018-05-06T11:33:30.654Z,23.38
2018-05-06T11:34:30.645Z,23.25
2018-05-06T11:35:30.623Z,23.33
2018-05-06T11:36:30.613Z,23.48
2018-05-06T11:37:30.614Z,23.50
2018-05-06T11:38:30.589Z,23.40
2018-05-06T11:39:30.580Z,23.36
2018-05-06T11:40:30.562Z,23.33
2018-05-06T11:41:30.558Z,23.35
2018-05-06T11:42:30.542Z,23.22
2018-05-06T11:43:30.531Z,23.20
2018-05-06T11:44:30.520Z,23.35
2018-05-06T11:45:30.510Z,23.36
2018-05-06T11:46:30.491Z,23.51
2018-05-06T11:47:30.484Z,23.53
2018-05-06T11:48:30.467Z,23.65
2018-05-06T11:49:30.458Z,23.61
2018-05-06T11:50:30.450Z,23.66
2018-05-06T11:51:30.441Z,23.61
2018-05-06T11:52:30.434Z,23.76
2018-05-06T11:53:30.438Z,23.76
2018-05-06T11:54:30.404Z,23.84
2018-05-06T11:55:30.388Z,23.94
2018-05-06T11:56:30.380Z,23.88
2018-05-06T11:57:30.364Z,23.79
2018-05-06T11:58:30.370Z,23.93
2018-05-06T11:59:30.339Z,23.85
2018-05-06T12:00:30.343Z,23.95
2018-05-06T12:01:30.320Z,24.02
2018-05-06T12:02:30.318Z,24.10
2018-05-06T12:03:30.293Z,24.12
2018-05-06T12:04:30.289Z,24.05
2018-05-06T12:05:30.273Z,24.06
2018-05-06T12:06:30.274Z,24.02
2018-05-06T12:07:30.250Z,24.03
2018-05-06T12:08:30.242Z,23.94
2018-05-06T12:09:30.244Z,23.88
2018-05-06T12:10:30.220Z,23.91
2018-05-06T12:11:30.211Z,23.95
2018-05-06T12:12:30.193Z,24.02
2018-05-06T12:13:30.200Z,23.90
2018-05-06T12:14:30.178Z,23.94
2018-05-06T12:15:30.162Z,23.83
2018-05-06T12:16:30.149Z,23.84
2018-05-06T12:17:30.137Z,23.78
2018-05-06T12:18:30.133Z,23.94
2018-05-06T12:19:30.116Z,23.85
2018-05-06T12:20:30.112Z,23.80
2018-05-06T12:21:30.097Z,23.85
2018-05-06T12:22:30.079Z,23.73
2018-05-06T12:23:30.074Z,23.69
2018-05-06T12:24:30.063Z,23.88
2018-05-06T12:25:30.048Z,23.73
2018-05-06T12:26:30.042Z,23.83
2018-05-06T12:27:30.032Z,23.83
2018-05-06T12:28:30.016Z,23.72
2018-05-06T12:29:30.000Z,23.73
2018-05-06T12:30:29.999Z,23.76
2018-05-06T12:31:29.983Z,23.72
2018-05-06T12:32:29.965Z,23.70
2018-05-06T12:33:29.960Z,23.69
2018-05-06T12:34:29.949Z,23.75
2018-05-06T12:35:29.933Z,23.69
2018-05-06T12:36:29.923Z,23.75
2018-05-06T12:37:29.911Z,23.72
2018-05-06T12:38:29.902Z,23.80
2018-05-06T12:39:29.886Z,23.95
2018-05-06T12:40:29.878Z,23.98
2018-05-06T12:41:29.870Z,23.98
2018-05-06T12:42:29.859Z,23.98
2018-05-06T12:43:29.965Z,23.88
2018-05-06T12:44:29.832Z,23.76
2018-05-06T12:45:29.816Z,23.84
2018-05-06T12:46:29.810Z,23.76
2018-05-06T12:47:29.800Z,23.80
2018-05-06T12:48:29.788Z,23.73
2018-05-06T12:49:29.783Z,23.66
2018-05-06T12:50:29.760Z,23.78
2018-05-06T12:51:29.758Z,23.65
2018-05-06T12:52:29.740Z,23.70